• Join FlightAware (Why Join?)
  • Login
  • US Flag 
07:09AM EDT


 

Airport Tracker/Info


-or-


 

Live Flight TrackerFlight Track Log ✈ N682RW ✈ 16-Sep-2013 ✈ KDTW - KTVC

Flight Track Log - Related Links

Times and Time Zones

All times are in EDT time to prevent confusion due to time zone crossing. See the N682RW flight status page for this flight to view local times or setup timezone preferences in your user account.

Time Position Orientation Groundspeed Altitude Reporting Facility
EDT Latitude Longitude Course Direction KTS MPH feet Rate Location/Type
01:24PM 42.2214 -83.3325 18° North 179 206 1,400  Level Cleveland Center
01:25PM 42.2450 -83.3219 18° North 201 231 2,600 2,400 Climbing Cleveland Center
01:26PM 42.3050 -83.3031 13° North 236 272 5,200 3,000 Climbing Cleveland Center
01:27PM 42.3814 -83.3069 358° North 270 311 8,800 2,880 Climbing Cleveland Center
01:28PM 42.4631 -83.3119 357° North 291 335 11,300 2,820 Climbing Cleveland Center
01:29PM 42.5722 -83.3256 355° North 328 377 14,700 3,000 Climbing Cleveland Center
01:30PM 42.6672 -83.3375 355° North 342 394 17,500 2,220 Climbing Cleveland Center
01:31PM 42.7642 -83.3478 356° North 349 402 19,400 720 Climbing Cleveland Center
01:33PM 42.9864 -83.3686 356° North 356 410 20,000 180 Climbing Minneapolis Center
01:34PM 43.0803 -83.3867 352° North 357 411 20,000  Level Cleveland Center
01:35PM 43.1481 -83.4831 314° West 357 411 20,000  Level Cleveland Center
01:36PM 43.2133 -83.5836 312° West 356 410 20,000  Level Cleveland Center
01:37PM 43.2792 -83.6803 313° West 348 400 20,000  Level Cleveland Center
01:38PM 43.3442 -83.7842 311° West 357 411 20,000  Level Cleveland Center
01:39PM 43.4250 -83.9136 311° West 358 412 20,000  Level Minneapolis Center
01:40PM 43.4914 -84.0161 312° West 359 413 20,000  Level Minneapolis Center
01:41PM 43.5742 -84.1364 314° West 361 415 20,000  Level Minneapolis Center
01:42PM 43.6478 -84.2272 318° Northwest 358 412 20,000  Level Minneapolis Center
01:43PM 43.7214 -84.3194 318° Northwest 358 412 20,000  Level Minneapolis Center
01:44PM 43.7997 -84.4161 318° Northwest 360 414 20,000  Level Minneapolis Center
01:45PM 43.8683 -84.5064 317° Northwest 360 414 20,000 -1,020 Level Minneapolis Center
01:47PM 43.9414 -84.5994 317° Northwest 359 413 18,000 -2,040 Descending Minneapolis Center
01:48PM 44.0181 -84.6967 318° Northwest 358 412 15,800 -2,460 Descending Minneapolis Center
01:49PM 44.1000 -84.8042 317° Northwest 344 396 13,000 -2,100 Descending Minneapolis Center
01:50PM 44.1658 -84.8889 317° Northwest 333 383 11,500 -1,440 Descending Minneapolis Center
01:51PM 44.2258 -84.9664 317° Northwest 308 354 10,100 -1,260 Descending Minneapolis Center
01:52PM 44.2811 -85.0389 317° Northwest 285 328 8,900 -1,440 Descending Minneapolis Center
01:53PM 44.3333 -85.1069 317° Northwest 266 306 7,200 -1,500 Descending Minneapolis Center
01:54PM 44.3972 -85.1917 317° Northwest 263 303 5,800 -1,200 Descending Minneapolis Center
01:55PM 44.4503 -85.2589 318° Northwest 262 302 4,700 -780 Descending Minneapolis Center
01:56PM 44.5019 -85.3278 316° Northwest 260 299 4,200 -540 Descending Minneapolis Center
01:57PM 44.5542 -85.3972 317° Northwest 259 298 3,700 -480 Descending Minneapolis Center
01:58PM 44.6061 -85.4644 317° Northwest 258 297 3,300 -360 Descending Minneapolis Center
01:59PM 44.6483 -85.5450 306° West 257 296 3,000 -240 Descending Minneapolis Center
02:00PM 44.6850 -85.6358 300° West 240 276 2,900 -480 Descending Minneapolis Center
02:01PM 44.7200 -85.6739 322° Northwest 204 235 2,100 -780 Descending Minneapolis Center
02:02PM 44.7442 -85.6361 48° Northeast 161 185 1,400 -720 Descending Minneapolis Center